createdAt,value
2019-05-22T00:01:51.577Z,43.05
2019-05-22T00:04:27.216Z,41.83
2019-05-22T00:07:00.411Z,33.40
2019-05-22T00:09:38.159Z,39.05
2019-05-22T00:12:24.824Z,39.38
2019-05-22T00:14:56.591Z,44.10
2019-05-22T00:17:29.393Z,42.40
2019-05-22T00:20:00.918Z,43.75
2019-05-22T00:22:33.882Z,64.15
2019-05-22T00:25:07.711Z,51.92
2019-05-22T00:27:39.567Z,42.38
2019-05-22T00:30:13.254Z,46.75
2019-05-22T00:32:44.958Z,51.05
2019-05-22T00:35:18.216Z,46.73
2019-05-22T00:37:51.309Z,37.80
2019-05-22T00:40:25.505Z,26.82
2019-05-22T00:43:04.003Z,35.25
2019-05-22T00:45:33.546Z,31.52
2019-05-22T00:48:05.117Z,30.45
2019-05-22T00:50:40.834Z,27.02
2019-05-22T00:53:30.319Z,23.83
2019-05-22T00:56:03.514Z,33.70
2019-05-22T00:58:42.640Z,25.95
2019-05-22T01:01:33.751Z,25.12
2019-05-22T01:04:08.993Z,25.68
2019-05-22T01:06:42.493Z,25.02
2019-05-22T01:09:21.110Z,26.73
2019-05-22T01:11:52.434Z,24.15
2019-05-22T01:14:25.528Z,21.87
2019-05-22T01:16:57.001Z,18.65
2019-05-22T01:19:28.753Z,19.42
2019-05-22T01:22:00.303Z,19.32
2019-05-22T01:24:33.470Z,16.37
2019-05-22T01:27:04.741Z,27.50
2019-05-22T01:29:37.402Z,24.47
2019-05-22T01:32:15.846Z,25.05
2019-05-22T01:34:50.020Z,16.93
2019-05-22T01:37:24.186Z,15.95
2019-05-22T01:39:58.205Z,13.22
2019-05-22T01:42:32.718Z,24.32
2019-05-22T01:45:07.722Z,16.65
2019-05-22T01:47:53.105Z,13.30
2019-05-22T01:50:29.374Z,17.50
2019-05-22T01:53:00.582Z,17.50
2019-05-22T01:55:34.310Z,18.25
2019-05-22T01:58:06.190Z,16.87
2019-05-22T02:00:37.524Z,18.98
2019-05-22T02:03:10.821Z,17.37
2019-05-22T02:05:43.553Z,18.23
2019-05-22T02:08:15.467Z,24.85
2019-05-22T02:10:47.107Z,19.87
2019-05-22T02:13:23.587Z,15.50
2019-05-22T02:16:02.708Z,20.35
2019-05-22T02:18:36.410Z,25.72
2019-05-22T02:21:09.707Z,27.98
2019-05-22T02:23:43.219Z,27.82
2019-05-22T02:26:16.578Z,23.98
2019-05-22T02:28:48.948Z,24.43
2019-05-22T02:31:21.301Z,21.27
2019-05-22T02:34:03.060Z,18.85
2019-05-22T02:36:35.003Z,20.43
2019-05-22T02:39:10.783Z,13.20
2019-05-22T02:41:58.799Z,16.30
2019-05-22T02:44:33.720Z,16.93
2019-05-22T02:47:18.151Z,19.37
2019-05-22T02:49:40.007Z,19.35
2019-05-22T02:52:11.648Z,21.37
2019-05-22T02:54:43.217Z,17.45
2019-05-22T02:57:14.450Z,19.70
2019-05-22T02:59:46.228Z,13.03
2019-05-22T03:02:18.212Z,11.97
2019-05-22T03:04:56.390Z,21.77
2019-05-22T03:07:31.676Z,19.10
2019-05-22T03:10:03.723Z,17.75
2019-05-22T03:12:36.578Z,20.92
2019-05-22T03:15:11.508Z,17.48
2019-05-22T03:17:43.666Z,14.78
2019-05-22T03:20:17.378Z,15.58
2019-05-22T03:23:15.037Z,29.18
2019-05-22T03:28:18.642Z,14.85
2019-05-22T03:30:51.450Z,16.82
2019-05-22T03:33:22.697Z,15.80
2019-05-22T03:36:07.738Z,18.37
2019-05-22T03:38:40.875Z,18.60
2019-05-22T03:41:13.950Z,18.55
2019-05-22T03:43:46.367Z,23.25
2019-05-22T03:46:23.880Z,22.93
2019-05-22T03:48:56.313Z,29.75
2019-05-22T03:51:27.727Z,33.60
2019-05-22T03:53:59.362Z,33.15
2019-05-22T03:56:31.635Z,32.20
2019-05-22T03:59:03.716Z,20.82
2019-05-22T04:01:37.167Z,16.87
2019-05-22T04:04:10.191Z,17.10
2019-05-22T04:06:45.036Z,14.83
2019-05-22T04:09:17.869Z,23.65
2019-05-22T04:11:49.963Z,22.60
2019-05-22T04:14:21.518Z,21.90
2019-05-22T04:16:52.760Z,19.37
2019-05-22T04:19:26.970Z,21.93
2019-05-22T04:21:58.323Z,21.17
2019-05-22T04:24:32.711Z,25.48
2019-05-22T04:27:05.544Z,23.30
2019-05-22T04:29:38.343Z,16.93
2019-05-22T04:32:11.104Z,28.60
2019-05-22T04:34:43.257Z,22.00
2019-05-22T04:37:16.328Z,23.52
2019-05-22T04:39:49.590Z,20.43
2019-05-22T04:42:22.659Z,16.50
2019-05-22T04:45:10.264Z,20.53
2019-05-22T04:47:43.565Z,21.65
2019-05-22T04:50:15.802Z,19.17
2019-05-22T04:52:47.281Z,24.72
2019-05-22T04:55:18.817Z,30.30
2019-05-22T04:57:50.258Z,24.25
2019-05-22T05:00:22.970Z,32.48
2019-05-22T05:02:54.312Z,19.35
2019-05-22T05:05:30.939Z,21.48
2019-05-22T05:08:03.692Z,24.05
2019-05-22T05:10:35.607Z,26.20
2019-05-22T05:13:21.150Z,24.25
2019-05-22T05:15:59.422Z,27.13
2019-05-22T05:18:31.274Z,25.62
2019-05-22T05:21:02.533Z,31.87
2019-05-22T05:23:34.178Z,32.05
2019-05-22T05:26:06.036Z,36.90
2019-05-22T05:28:38.205Z,34.53
2019-05-22T05:31:09.861Z,36.68
2019-05-22T05:33:51.795Z,30.85
2019-05-22T05:36:25.069Z,27.93
2019-05-22T05:38:56.504Z,27.85
2019-05-22T05:41:29.666Z,24.18
2019-05-22T05:44:01.079Z,24.40
2019-05-22T05:46:34.283Z,28.42
2019-05-22T05:49:06.916Z,33.58
2019-05-22T05:51:40.623Z,37.90
2019-05-22T05:54:12.982Z,52.38
2019-05-22T05:56:48.046Z,43.38
2019-05-22T05:59:20.676Z,42.33
2019-05-22T06:01:53.682Z,37.42
2019-05-22T06:04:34.547Z,39.08
2019-05-22T06:07:04.689Z,43.28
2019-05-22T06:09:36.023Z,48.38
2019-05-22T06:12:09.318Z,39.73
2019-05-22T06:14:41.586Z,38.98
2019-05-22T06:17:32.910Z,37.25
2019-05-22T06:20:11.929Z,37.33
2019-05-22T06:22:43.967Z,30.75
2019-05-22T06:25:15.648Z,44.10
2019-05-22T06:27:48.754Z,30.35
2019-05-22T06:30:25.716Z,39.13
2019-05-22T06:33:13.690Z,34.18
2019-05-22T06:35:45.005Z,34.58
2019-05-22T06:38:38.755Z,34.03
2019-05-22T06:41:10.953Z,32.40
2019-05-22T06:43:45.566Z,36.05
2019-05-22T06:46:22.548Z,57.35
2019-05-22T06:48:54.918Z,67.22
2019-05-22T06:51:26.054Z,83.58
2019-05-22T06:53:57.616Z,80.57
2019-05-22T06:56:29.065Z,72.42
2019-05-22T06:59:00.533Z,61.35
2019-05-22T07:01:31.746Z,90.65
2019-05-22T07:04:03.230Z,66.02
2019-05-22T07:06:34.573Z,54.10
2019-05-22T07:09:06.726Z,54.65
2019-05-22T07:11:38.069Z,50.40
2019-05-22T07:14:11.060Z,63.40
2019-05-22T07:16:42.601Z,50.50
2019-05-22T07:19:15.517Z,39.08
2019-05-22T07:21:48.482Z,49.65
2019-05-22T07:24:20.696Z,40.73
2019-05-22T07:26:52.718Z,42.90
2019-05-22T07:29:24.678Z,40.23
2019-05-22T07:32:02.165Z,41.68
2019-05-22T07:34:34.159Z,41.40
2019-05-22T07:37:07.632Z,55.50
2019-05-22T07:39:38.761Z,47.62
2019-05-22T07:42:10.009Z,41.35
2019-05-22T07:44:41.651Z,37.45
2019-05-22T07:47:13.437Z,34.83
2019-05-22T07:49:45.299Z,37.13
2019-05-22T07:52:16.924Z,36.13
2019-05-22T07:54:48.172Z,37.30
2019-05-22T07:57:21.776Z,39.33
2019-05-22T07:59:53.144Z,45.73
2019-05-22T08:02:25.003Z,50.00
2019-05-22T08:04:56.971Z,46.92
2019-05-22T08:07:28.627Z,56.33
2019-05-22T08:10:00.162Z,50.10
2019-05-22T08:12:31.985Z,46.13
2019-05-22T08:15:03.766Z,45.03
2019-05-22T08:17:35.161Z,38.63
2019-05-22T08:20:07.621Z,35.73
2019-05-22T08:22:39.380Z,41.13
2019-05-22T08:25:13.129Z,36.88
2019-05-22T08:27:44.530Z,33.95
2019-05-22T08:30:15.998Z,32.25
2019-05-22T08:32:47.223Z,39.05
2019-05-22T08:35:18.572Z,31.30
2019-05-22T08:37:50.140Z,30.15
2019-05-22T08:40:22.379Z,21.97
2019-05-22T08:42:53.849Z,21.20
2019-05-22T08:45:25.909Z,18.27
2019-05-22T08:47:58.331Z,22.30
2019-05-22T08:50:32.439Z,16.10
2019-05-22T08:53:07.527Z,12.30
2019-05-22T08:55:39.421Z,12.40
2019-05-22T08:58:11.067Z,18.05
2019-05-22T09:00:44.436Z,21.80
2019-05-22T09:03:19.021Z,19.92
2019-05-22T09:05:51.145Z,19.92
2019-05-22T09:08:23.917Z,20.00
2019-05-22T09:10:55.542Z,19.65
2019-05-22T09:13:27.271Z,28.45
2019-05-22T09:16:01.659Z,29.65
2019-05-22T09:18:32.473Z,22.32
2019-05-22T09:21:05.356Z,21.90
2019-05-22T09:23:37.199Z,17.37
2019-05-22T09:26:09.388Z,18.27
2019-05-22T09:28:40.740Z,11.68
2019-05-22T09:31:13.692Z,16.23
2019-05-22T09:33:45.577Z,12.50
2019-05-22T09:36:17.428Z,11.05
2019-05-22T09:38:51.900Z,10.80
2019-05-22T09:41:21.885Z,15.03
2019-05-22T09:43:53.203Z,9.75
2019-05-22T09:46:26.295Z,11.63
2019-05-22T09:48:58.260Z,12.73
2019-05-22T09:51:29.831Z,8.10
2019-05-22T09:54:01.360Z,8.88
2019-05-22T09:56:32.997Z,8.85
2019-05-22T09:59:04.593Z,10.95
2019-05-22T10:01:36.189Z,12.47
2019-05-22T10:04:10.438Z,9.23
2019-05-22T10:06:42.325Z,9.13
2019-05-22T10:09:13.854Z,11.35
2019-05-22T10:11:45.611Z,8.58
2019-05-22T10:14:17.383Z,12.30
2019-05-22T10:16:49.858Z,18.90
2019-05-22T10:19:21.197Z,12.30
2019-05-22T10:21:55.209Z,17.87
2019-05-22T10:24:27.708Z,18.82
2019-05-22T10:26:59.656Z,26.80
2019-05-22T10:29:32.664Z,29.25
2019-05-22T10:32:04.913Z,35.13
2019-05-22T10:34:36.165Z,24.12
2019-05-22T10:37:11.106Z,23.62
2019-05-22T10:39:42.839Z,26.77
2019-05-22T10:42:15.201Z,29.63
2019-05-22T10:44:46.796Z,30.52
2019-05-22T10:47:19.038Z,35.43
2019-05-22T10:49:51.528Z,29.92
2019-05-22T10:52:25.368Z,41.13
2019-05-22T10:54:56.324Z,38.60
2019-05-22T10:57:32.646Z,35.98
2019-05-22T11:00:09.541Z,19.50
2019-05-22T11:02:44.700Z,27.82
2019-05-22T11:05:16.425Z,13.40
2019-05-22T11:07:48.267Z,24.40
2019-05-22T11:10:22.270Z,8.85
2019-05-22T11:12:55.436Z,10.53
2019-05-22T11:15:28.784Z,8.60
2019-05-22T11:18:03.351Z,7.80
2019-05-22T11:20:35.822Z,5.83
2019-05-22T11:23:08.636Z,11.88
2019-05-22T11:25:41.699Z,8.73
2019-05-22T11:28:14.938Z,21.07
2019-05-22T11:30:47.022Z,25.43
2019-05-22T11:33:21.156Z,10.63
2019-05-22T11:35:57.062Z,8.10
2019-05-22T11:40:59.728Z,6.78
2019-05-22T11:43:31.190Z,8.85
2019-05-22T11:46:02.620Z,11.08
2019-05-22T11:48:39.418Z,10.58
2019-05-22T11:51:11.732Z,10.08
2019-05-22T11:53:43.857Z,11.57
2019-05-22T11:56:17.184Z,10.65
2019-05-22T11:58:48.488Z,9.75
2019-05-22T12:01:20.983Z,13.08
2019-05-22T12:03:53.583Z,12.20
2019-05-22T12:06:31.043Z,8.25
2019-05-22T12:09:07.019Z,12.33
2019-05-22T12:11:38.549Z,14.55
2019-05-22T12:14:10.105Z,10.88
2019-05-22T12:16:42.055Z,10.48
2019-05-22T12:19:14.078Z,9.68
2019-05-22T12:21:47.062Z,7.53
2019-05-22T12:24:27.967Z,10.10
2019-05-22T12:26:54.170Z,11.35
2019-05-22T12:29:27.255Z,9.30
2019-05-22T12:31:59.593Z,9.83
2019-05-22T12:34:31.762Z,14.58
2019-05-22T12:37:03.237Z,11.60
2019-05-22T12:39:34.849Z,9.93
2019-05-22T12:42:06.296Z,10.90
2019-05-22T12:44:38.678Z,16.35
2019-05-22T12:47:10.111Z,10.68
2019-05-22T12:49:42.803Z,10.43
2019-05-22T12:52:14.916Z,12.63
2019-05-22T12:54:51.516Z,9.73
2019-05-22T12:57:21.416Z,13.38
2019-05-22T12:59:53.782Z,10.53
2019-05-22T13:02:25.170Z,16.00
2019-05-22T13:04:58.815Z,25.10
2019-05-22T13:07:31.068Z,30.43
2019-05-22T13:10:02.821Z,37.95
2019-05-22T13:12:34.771Z,24.02
2019-05-22T13:15:10.428Z,32.85
2019-05-22T13:17:41.017Z,27.20
2019-05-22T13:20:14.003Z,34.55
2019-05-22T13:22:46.862Z,36.65
2019-05-22T13:25:20.101Z,44.15
2019-05-22T13:27:51.436Z,34.33
2019-05-22T13:30:29.018Z,37.42
2019-05-22T13:33:00.269Z,27.70
2019-05-22T13:35:31.943Z,25.30
2019-05-22T13:38:04.556Z,27.00
2019-05-22T13:40:36.063Z,24.92
2019-05-22T13:43:12.336Z,27.62
2019-05-22T13:45:43.688Z,31.57
2019-05-22T13:48:15.135Z,23.42
2019-05-22T13:50:47.444Z,27.62
2019-05-22T13:53:23.158Z,20.90
2019-05-22T13:55:55.936Z,25.40
2019-05-22T13:58:28.634Z,18.75
2019-05-22T14:01:00.190Z,22.00
2019-05-22T14:03:31.950Z,23.42
2019-05-22T14:06:04.359Z,19.10
2019-05-22T14:08:35.858Z,20.70
2019-05-22T14:11:07.396Z,20.88
2019-05-22T14:13:39.669Z,19.95
2019-05-22T14:16:11.531Z,20.10
2019-05-22T14:18:43.800Z,20.43
2019-05-22T14:21:15.349Z,22.15
2019-05-22T14:23:46.794Z,28.47
2019-05-22T14:26:19.070Z,17.37
2019-05-22T14:28:50.877Z,9.10
2019-05-22T14:31:23.611Z,11.57
2019-05-22T14:33:54.950Z,9.35
2019-05-22T14:36:27.126Z,6.35
2019-05-22T14:39:04.227Z,7.62
2019-05-22T14:41:35.971Z,6.22
2019-05-22T14:44:07.420Z,4.85
2019-05-22T14:46:39.072Z,6.85
2019-05-22T14:49:10.370Z,6.83
2019-05-22T14:51:42.215Z,5.15
2019-05-22T14:54:14.355Z,8.60
2019-05-22T14:56:46.392Z,8.85
2019-05-22T14:59:17.637Z,9.28
2019-05-22T15:01:51.168Z,10.85
2019-05-22T15:04:24.240Z,14.38
2019-05-22T15:06:59.278Z,8.85
2019-05-22T15:09:30.732Z,8.28
2019-05-22T15:12:03.604Z,8.65
2019-05-22T15:14:36.882Z,9.50
2019-05-22T15:17:09.181Z,9.03
2019-05-22T15:19:42.321Z,7.05
2019-05-22T15:22:16.176Z,7.60
2019-05-22T15:24:49.331Z,7.65
2019-05-22T15:27:22.872Z,6.08
2019-05-22T15:29:55.315Z,5.75
2019-05-22T15:32:27.421Z,5.80
2019-05-22T15:34:59.270Z,7.35
2019-05-22T15:37:31.526Z,9.83
2019-05-22T15:40:04.403Z,7.08
2019-05-22T15:42:44.363Z,5.95
2019-05-22T15:45:20.051Z,5.22
2019-05-22T15:47:56.242Z,7.20
2019-05-22T15:50:27.848Z,8.15
2019-05-22T15:53:06.860Z,8.60
2019-05-22T15:55:39.435Z,5.12
2019-05-22T15:58:13.032Z,7.55
2019-05-22T16:00:47.964Z,8.30
2019-05-22T16:03:23.248Z,7.17
2019-05-22T16:05:55.170Z,9.10
2019-05-22T16:08:26.985Z,7.85
2019-05-22T16:11:00.289Z,6.17
2019-05-22T16:13:33.493Z,6.85
2019-05-22T16:16:06.712Z,7.65
2019-05-22T16:18:39.009Z,6.08
2019-05-22T16:21:11.220Z,7.42
2019-05-22T16:23:43.610Z,6.05
2019-05-22T16:26:17.283Z,11.10
2019-05-22T16:28:53.891Z,12.23
2019-05-22T16:31:25.950Z,8.50
2019-05-22T16:34:02.906Z,7.15
2019-05-22T16:36:35.610Z,12.28
2019-05-22T16:39:08.582Z,10.65
2019-05-22T16:41:40.249Z,9.05
2019-05-22T16:44:15.562Z,7.37
2019-05-22T16:46:47.244Z,10.03
2019-05-22T16:49:19.923Z,10.48
2019-05-22T16:51:52.115Z,8.38
2019-05-22T16:54:24.063Z,11.12
2019-05-22T16:56:55.407Z,10.20
2019-05-22T16:59:27.275Z,8.53
2019-05-22T17:02:00.546Z,12.70
2019-05-22T17:04:32.766Z,11.12
2019-05-22T17:07:06.403Z,15.55
2019-05-22T17:09:38.741Z,17.55
2019-05-22T17:12:09.950Z,10.58
2019-05-22T17:14:41.792Z,11.90
2019-05-22T17:17:13.979Z,13.72
2019-05-22T17:19:48.801Z,18.90
2019-05-22T17:22:25.576Z,9.90
2019-05-22T17:24:57.659Z,12.85
2019-05-22T17:27:30.110Z,16.20
2019-05-22T17:30:02.271Z,17.50
2019-05-22T17:32:34.555Z,15.05
2019-05-22T17:35:06.914Z,12.45
2019-05-22T17:37:38.280Z,22.60
2019-05-22T17:40:10.748Z,18.00
2019-05-22T17:42:44.064Z,19.52
2019-05-22T17:45:20.401Z,25.72
2019-05-22T17:47:52.699Z,21.07
2019-05-22T17:50:28.664Z,22.80
2019-05-22T17:53:00.110Z,27.05
2019-05-22T17:55:33.522Z,21.77
2019-05-22T17:58:07.593Z,22.73
2019-05-22T18:00:42.439Z,21.25
2019-05-22T18:03:15.853Z,23.65
2019-05-22T18:05:48.341Z,22.90
2019-05-22T18:08:21.420Z,23.22
2019-05-22T18:10:53.849Z,22.42
2019-05-22T18:13:26.150Z,19.98
2019-05-22T18:15:58.612Z,19.10
2019-05-22T18:18:30.334Z,18.85
2019-05-22T18:21:01.845Z,18.02
2019-05-22T18:23:35.145Z,19.45
2019-05-22T18:26:08.021Z,15.50
2019-05-22T18:28:39.862Z,17.55
2019-05-22T18:31:11.723Z,17.07
2019-05-22T18:33:43.677Z,15.78
2019-05-22T18:36:15.254Z,15.63
2019-05-22T18:38:46.998Z,15.65
2019-05-22T18:41:18.540Z,14.35
2019-05-22T18:43:49.993Z,15.50
2019-05-22T18:46:21.852Z,13.98
2019-05-22T18:48:53.611Z,9.55
2019-05-22T18:51:27.004Z,10.08
2019-05-22T18:53:58.971Z,12.68
2019-05-22T18:56:30.476Z,9.63
2019-05-22T18:59:02.086Z,10.60
2019-05-22T19:01:34.755Z,10.65
2019-05-22T19:04:07.126Z,12.07
2019-05-22T19:06:38.681Z,10.65
2019-05-22T19:09:10.439Z,10.68
2019-05-22T19:11:43.969Z,15.80
2019-05-22T19:14:15.285Z,19.27
2019-05-22T19:16:48.350Z,13.60
2019-05-22T19:19:20.121Z,13.93
2019-05-22T19:21:51.893Z,12.40
2019-05-22T19:24:23.752Z,10.13
2019-05-22T19:26:55.647Z,8.63
2019-05-22T19:29:27.259Z,9.38
2019-05-22T19:31:58.714Z,9.50
2019-05-22T19:34:30.269Z,10.38
2019-05-22T19:37:01.818Z,9.55
2019-05-22T19:39:33.657Z,8.45
2019-05-22T19:42:06.051Z,9.80
2019-05-22T19:44:37.395Z,8.45
2019-05-22T19:47:09.462Z,6.60
2019-05-22T19:49:43.710Z,8.20
2019-05-22T19:52:14.551Z,9.18
2019-05-22T19:54:46.305Z,10.98
2019-05-22T19:57:17.923Z,9.28
2019-05-22T20:00:00.892Z,8.70
2019-05-22T20:02:33.134Z,10.30
2019-05-22T20:05:09.455Z,10.45
2019-05-22T20:10:16.484Z,11.22
2019-05-22T20:12:49.321Z,11.65
2019-05-22T20:15:20.812Z,9.98
2019-05-22T20:17:54.883Z,9.70
2019-05-22T20:20:27.600Z,11.12
2019-05-22T20:22:59.875Z,11.08
2019-05-22T20:25:31.424Z,12.58
2019-05-22T20:28:05.539Z,12.10
2019-05-22T20:30:37.297Z,13.60
2019-05-22T20:33:10.797Z,12.45
2019-05-22T20:35:42.451Z,10.45
2019-05-22T20:38:14.004Z,15.28
2019-05-22T20:40:49.584Z,10.00
2019-05-22T20:43:21.926Z,10.70
2019-05-22T20:45:54.086Z,10.05
2019-05-22T20:48:27.380Z,9.98
2019-05-22T20:51:01.598Z,13.05
2019-05-22T20:53:53.000Z,61.83
2019-05-22T20:56:11.977Z,12.55
2019-05-22T20:58:43.525Z,13.95
2019-05-22T21:01:16.820Z,17.65
2019-05-22T21:03:48.474Z,12.65
2019-05-22T21:06:21.570Z,12.30
2019-05-22T21:08:53.939Z,13.18
2019-05-22T21:11:27.735Z,14.95
2019-05-22T21:13:59.499Z,15.15
2019-05-22T21:16:32.001Z,15.28
2019-05-22T21:19:03.938Z,13.45
2019-05-22T21:21:35.795Z,12.25
2019-05-22T21:24:11.442Z,14.68
2019-05-22T21:26:43.098Z,12.50
2019-05-22T21:29:17.025Z,12.10
2019-05-22T21:31:48.869Z,16.12
2019-05-22T21:34:21.875Z,12.13
2019-05-22T21:36:54.034Z,13.65
2019-05-22T21:39:26.394Z,12.15
2019-05-22T21:41:58.153Z,13.65
2019-05-22T21:44:29.827Z,10.80
2019-05-22T21:47:01.480Z,11.93
2019-05-22T21:49:33.638Z,12.65
2019-05-22T21:52:06.929Z,13.18
2019-05-22T21:54:39.089Z,15.05
2019-05-22T21:57:10.744Z,11.53
2019-05-22T21:59:43.013Z,12.50
2019-05-22T22:02:20.441Z,12.95
2019-05-22T22:04:54.227Z,11.60
2019-05-22T22:07:25.561Z,14.47
2019-05-22T22:09:59.376Z,17.48
2019-05-22T22:12:31.650Z,17.45
2019-05-22T22:15:03.085Z,17.77
2019-05-22T22:17:38.235Z,14.60
2019-05-22T22:20:10.287Z,15.63
2019-05-22T22:22:42.056Z,14.60
2019-05-22T22:25:15.143Z,15.23
2019-05-22T22:27:47.198Z,16.97
2019-05-22T22:30:32.773Z,17.05
2019-05-22T22:33:09.351Z,17.30
2019-05-22T22:35:41.825Z,22.27
2019-05-22T22:38:16.653Z,16.85
2019-05-22T22:40:50.072Z,18.23
2019-05-22T22:43:23.647Z,16.25
2019-05-22T22:45:56.939Z,16.87
2019-05-22T22:48:32.149Z,14.38
2019-05-22T22:51:15.710Z,19.95
2019-05-22T22:53:47.776Z,14.55
2019-05-22T22:56:19.447Z,14.25
2019-05-22T22:58:50.884Z,13.15
2019-05-22T23:01:26.348Z,12.68
2019-05-22T23:03:59.617Z,13.30
2019-05-22T23:06:31.581Z,10.55
2019-05-22T23:09:04.569Z,10.90
2019-05-22T23:11:38.271Z,12.70
2019-05-22T23:14:10.559Z,14.23
2019-05-22T23:16:42.403Z,14.50
2019-05-22T23:19:18.457Z,16.77
2019-05-22T23:21:49.193Z,17.12
2019-05-22T23:24:21.160Z,12.55
2019-05-22T23:26:52.607Z,13.35
2019-05-22T23:29:23.952Z,12.95
2019-05-22T23:31:56.758Z,12.68
2019-05-22T23:34:29.109Z,18.12
2019-05-22T23:37:01.339Z,18.48
2019-05-22T23:39:34.068Z,16.05
2019-05-22T23:42:08.915Z,16.02
2019-05-22T23:44:41.565Z,19.30
2019-05-22T23:47:13.321Z,21.40
2019-05-22T23:49:45.393Z,20.50
2019-05-22T23:52:20.523Z,21.62
2019-05-22T23:54:52.555Z,23.25
2019-05-22T23:57:24.665Z,21.55
2019-05-22T23:59:57.227Z,26.73
